Time;durP1;ratioP1;P1;durP2;ratioP2;P2;SDS_P1;SDS_P2;PMS_P1;PMS_P2;Temp;Humidity;BMP_temperature;BMP_pressure;BME280_temperature;BME280_humidity;BME280_pressure;Samples;Min_cycle;Max_cycle;Signal;HPM_P1;HPM_P2
2024/01/25 00:00:22;;;;;;;9.80;2.70;;;;;;;5.73;72.56;97029.31;108439;1256;95848;-80
2024/01/25 00:03:09;;;;;;;8.70;2.90;;;;;;;5.66;72.97;97006.36;108460;1256;96425;-80
2024/01/25 00:05:37;;;;;;;6.40;2.00;;;;;;;5.54;73.25;96991.09;108450;1256;103269;-79
2024/01/25 00:08:05;;;;;;;8.20;2.30;;;;;;;5.44;73.44;96983.60;108381;1260;101632;-79
2024/01/25 00:10:33;;;;;;;8.70;2.60;;;;;;;5.39;73.61;96979.48;108424;1256;100238;-80
2024/01/25 00:13:01;;;;;;;6.80;2.30;;;;;;;5.36;73.70;96970.95;108447;1256;95614;-80
2024/01/25 00:15:29;;;;;;;8.80;2.10;;;;;;;5.35;73.37;96970.33;108438;1256;96229;-79
2024/01/25 00:17:56;;;;;;;12.80;2.50;;;;;;;5.34;73.12;96956.27;108421;1256;103823;-78
2024/01/25 00:20:24;;;;;;;10.60;2.50;;;;;;;5.35;72.74;96953.07;108464;1256;100900;-80
2024/01/25 00:22:52;;;;;;;6.10;1.80;;;;;;;5.38;72.52;96959.45;108482;1256;100168;-79
2024/01/25 00:25:19;;;;;;;11.20;2.90;;;;;;;5.43;72.04;96957.02;108422;1256;95543;-78
2024/01/25 00:27:47;;;;;;;6.40;2.00;;;;;;;5.49;71.86;96949.55;108469;1261;96013;-79
2024/01/25 00:30:15;;;;;;;9.90;2.40;;;;;;;5.55;71.67;96940.14;108434;1256;103843;-79
2024/01/25 00:32:43;;;;;;;6.40;2.10;;;;;;;5.60;71.42;96934.16;108480;1256;101432;-79
2024/01/25 00:35:13;;;;;;;9.20;2.40;;;;;;;5.63;71.34;96936.23;108452;1256;100188;-79
2024/01/25 00:37:41;;;;;;;8.70;3.30;;;;;;;5.65;71.39;96942.80;108409;1256;95568;-79
2024/01/25 00:40:10;;;;;;;8.30;2.90;;;;;;;5.64;71.08;96940.96;108473;1260;96031;-79
2024/01/25 00:42:43;;;;;;;9.00;2.80;;;;;;;5.62;70.92;96935.97;108436;1257;102462;-79
2024/01/25 00:45:11;;;;;;;;;;;;;;;5.64;70.59;96938.30;108510;1256;101688;-79
2024/01/25 00:47:39;;;;;;;14.30;3.20;;;;;;;5.64;70.56;96939.33;108446;1256;100151;-79
2024/01/25 00:50:07;;;;;;;7.30;2.00;;;;;;;5.65;70.20;96939.92;108334;1257;95670;-79
2024/01/25 00:52:36;;;;;;;14.20;2.60;;;;;;;5.68;69.66;96957.69;108437;1257;96036;-79
2024/01/25 00:55:04;;;;;;;9.10;2.90;;;;;;;5.75;69.81;96957.73;108448;1256;103905;-79
2024/01/25 00:57:32;;;;;;;10.70;2.70;;;;;;;5.78;69.94;96951.04;108406;1256;101484;-79
2024/01/25 01:00:00;;;;;;;6.70;2.20;;;;;;;5.79;69.51;96950.55;108437;1256;100641;-79
2024/01/25 01:02:31;;;;;;;12.20;3.50;;;;;;;5.85;67.97;96947.72;108425;1256;95671;-80
2024/01/25 01:04:59;;;;;;;9.70;2.20;;;;;;;5.93;68.02;96933.83;108399;1256;96155;-79
2024/01/25 01:07:27;;;;;;;7.40;2.00;;;;;;;6.00;68.22;96952.74;108302;1257;103868;-82
2024/01/25 01:09:55;;;;;;;6.60;2.10;;;;;;;6.01;68.66;96954.45;108366;1256;101492;-81
2024/01/25 01:12:23;;;;;;;10.50;2.40;;;;;;;5.98;69.12;96959.18;108347;1256;100953;-81
2024/01/25 01:14:51;;;;;;;7.20;2.30;;;;;;;5.91;69.12;96958.96;108425;1256;95550;-82
2024/01/25 01:17:18;;;;;;;9.70;2.00;;;;;;;5.87;68.80;96950.70;108394;1257;96033;-80
2024/01/25 01:19:46;;;;;;;8.30;2.00;;;;;;;5.87;68.67;96951.27;108409;1256;103635;-79
2024/01/25 01:22:14;;;;;;;8.90;2.40;;;;;;;5.89;68.50;96952.81;108395;1257;101470;-79
2024/01/25 01:24:41;;;;;;;9.10;2.20;;;;;;;5.92;68.20;96960.73;108411;1257;99816;-79
2024/01/25 01:27:09;;;;;;;11.20;2.60;;;;;;;5.95;67.95;96951.24;108424;1257;95600;-79
2024/01/25 01:29:37;;;;;;;7.60;1.70;;;;;;;5.98;67.31;96945.52;108475;1256;95875;-79
2024/01/25 01:32:05;;;;;;;11.00;2.70;;;;;;;6.03;67.33;96940.92;108475;1256;103812;-78
2024/01/25 01:34:32;;;;;;;9.00;1.80;;;;;;;6.05;66.96;96933.35;108396;1258;101638;-78
2024/01/25 01:37:00;;;;;;;7.50;2.20;;;;;;;6.07;67.14;96929.91;108332;1256;99938;-79
2024/01/25 01:39:28;;;;;;;6.80;2.20;;;;;;;6.08;67.14;96924.84;108367;1256;95569;-78
2024/01/25 01:41:55;;;;;;;10.10;2.20;;;;;;;6.08;67.11;96915.89;108406;1256;96078;-79
2024/01/25 01:44:23;;;;;;;9.20;2.10;;;;;;;6.08;67.25;96927.65;108431;1261;103559;-79
2024/01/25 01:46:51;;;;;;;6.70;2.10;;;;;;;6.06;67.19;96937.52;108448;1256;101513;-80
2024/01/25 01:49:19;;;;;;;6.30;2.50;;;;;;;6.01;67.67;96965.20;108399;1257;98972;-79
2024/01/25 01:51:47;;;;;;;9.00;2.10;;;;;;;5.90;68.37;96971.89;108409;1256;95652;-82
2024/01/25 01:54:15;;;;;;;10.50;2.50;;;;;;;5.78;68.79;96976.95;108438;1257;96081;-80
2024/01/25 01:56:44;;;;;;;9.40;2.00;;;;;;;5.69;69.03;96975.09;108425;1256;103643;-80
2024/01/25 01:59:12;;;;;;;7.20;2.30;;;;;;;5.62;69.28;96981.28;108321;1256;122167;-80
2024/01/25 02:01:40;;;;;;;7.30;1.70;;;;;;;5.54;69.73;97001.50;108389;1257;98596;-84
2024/01/25 02:04:07;;;;;;;10.40;2.70;;;;;;;5.44;70.17;97002.50;108353;1257;95553;-81
2024/01/25 02:06:35;;;;;;;6.30;1.80;;;;;;;5.35;70.73;97007.55;108392;1257;96476;-80
2024/01/25 02:09:03;;;;;;;10.00;2.30;;;;;;;5.24;70.99;97000.30;108414;1257;103872;-81
2024/01/25 02:11:31;;;;;;;5.90;2.40;;;;;;;5.15;71.55;96972.36;108411;1257;101689;-80
2024/01/25 02:13:58;;;;;;;11.30;2.10;;;;;;;5.06;71.85;96970.77;108450;1256;100120;-81
2024/01/25 02:16:26;;;;;;;4.10;1.90;;;;;;;4.99;71.83;96973.10;108301;1257;95631;-80
2024/01/25 02:18:57;;;;;;;9.90;2.20;;;;;;;4.95;72.05;96981.05;108441;1257;95986;-79
2024/01/25 02:21:24;;;;;;;8.50;1.90;;;;;;;4.92;72.27;96978.71;108461;1261;103752;-79
2024/01/25 02:23:52;;;;;;;7.50;2.20;;;;;;;4.91;72.35;96968.00;108390;1261;101422;-79
2024/01/25 02:26:20;;;;;;;7.50;2.20;;;;;;;4.90;72.49;96969.91;108424;1257;100173;-79
2024/01/25 02:28:47;;;;;;;5.30;2.10;;;;;;;4.89;72.68;96963.77;108382;1261;95647;-78
2024/01/25 02:31:15;;;;;;;8.50;2.00;;;;;;;4.87;72.64;96958.34;108411;1257;95950;-79
2024/01/25 02:33:43;;;;;;;8.30;2.00;;;;;;;4.88;72.58;96945.56;108403;1257;103588;-79
2024/01/25 02:36:10;;;;;;;7.50;2.20;;;;;;;4.89;72.37;96950.56;108443;1256;101398;-78
2024/01/25 02:38:38;;;;;;;7.30;1.80;;;;;;;4.90;71.99;96938.89;108397;1257;99272;-79
2024/01/25 02:41:06;;;;;;;8.40;1.70;;;;;;;4.93;71.99;96939.34;108311;1257;95575;-79
2024/01/25 02:43:33;;;;;;;7.90;1.90;;;;;;;4.96;72.01;96937.05;108455;1257;95906;-79
2024/01/25 02:46:01;;;;;;;8.00;2.60;;;;;;;4.95;71.92;96916.69;108377;1258;103697;-79
2024/01/25 02:48:29;;;;;;;8.50;1.80;;;;;;;4.95;71.80;96933.06;108409;1257;100276;-78
2024/01/25 02:50:57;;;;;;;8.40;1.60;;;;;;;4.97;71.00;96931.23;108453;1257;100188;-78
2024/01/25 02:53:24;;;;;;;5.60;2.20;;;;;;;5.01;71.28;96935.73;108396;1256;95951;-78
2024/01/25 02:55:52;;;;;;;6.40;1.80;;;;;;;5.01;71.56;96925.70;108448;1257;96004;-78
2024/01/25 02:58:20;;;;;;;9.00;2.40;;;;;;;5.01;71.60;96921.65;108385;1258;103874;-78
2024/01/25 03:00:48;;;;;;;10.90;2.40;;;;;;;4.98;71.36;96931.58;108366;1257;101603;-78
2024/01/25 03:03:16;;;;;;;8.60;2.40;;;;;;;4.99;71.26;96932.61;108424;1257;100044;-78
2024/01/25 03:05:44;;;;;;;7.40;2.00;;;;;;;5.00;70.81;96940.29;108397;1256;95595;-78
2024/01/25 03:08:11;;;;;;;10.50;2.20;;;;;;;5.04;70.68;96937.87;108376;1257;96030;-79
2024/01/25 03:10:39;;;;;;;12.00;2.10;;;;;;;5.08;70.48;96943.79;108395;1257;103784;-78
2024/01/25 03:13:07;;;;;;;7.80;1.80;;;;;;;5.12;70.28;96953.66;108448;1257;101579;-79
2024/01/25 03:15:34;;;;;;;8.10;2.60;;;;;;;5.15;70.19;96951.25;108390;1256;100034;-79
2024/01/25 03:18:02;;;;;;;9.80;2.20;;;;;;;5.19;70.08;96957.10;108337;1257;95856;-79
2024/01/25 03:20:30;;;;;;;7.40;1.90;;;;;;;5.20;69.95;96947.45;108425;1257;96366;-78
2024/01/25 03:22:57;;;;;;;7.60;1.60;;;;;;;5.22;69.33;96941.52;108458;1257;103712;-79
2024/01/25 03:25:25;;;;;;;9.30;1.90;;;;;;;5.26;69.07;96939.36;108383;1256;101547;-79
2024/01/25 03:27:52;;;;;;;6.20;1.90;;;;;;;5.30;68.56;96927.66;108391;1257;100082;-79
2024/01/25 03:30:20;;;;;;;10.60;1.90;;;;;;;5.34;68.34;96924.64;108396;1256;96643;-78
2024/01/25 03:32:48;;;;;;;7.70;2.10;;;;;;;5.37;67.95;96926.88;108398;1257;96044;-79
2024/01/25 03:35:15;;;;;;;8.30;2.10;;;;;;;5.42;67.64;96934.05;108461;1257;103309;-79
2024/01/25 03:37:43;;;;;;;11.00;2.20;;;;;;;5.46;66.96;96930.20;108400;1257;101416;-79
2024/01/25 03:40:11;;;;;;;11.80;2.00;;;;;;;5.51;66.59;96932.27;108431;1257;100144;-78
2024/01/25 03:42:39;;;;;;;8.20;1.90;;;;;;;5.56;66.41;96930.70;108412;1257;95525;-79
2024/01/25 03:45:07;;;;;;;5.00;1.60;;;;;;;5.60;65.76;96946.08;108423;1257;96071;-79
2024/01/25 03:47:35;;;;;;;7.10;1.50;;;;;;;5.64;65.23;96939.66;108423;1256;103854;-79
2024/01/25 03:50:02;;;;;;;8.80;1.70;;;;;;;5.69;64.80;96933.97;108421;1257;101652;-79
2024/01/25 03:52:30;;;;;;;6.90;1.50;;;;;;;5.73;64.16;96925.44;108439;1256;101868;-81
2024/01/25 03:54:58;;;;;;;8.90;1.80;;;;;;;5.77;64.16;96922.11;108406;1256;95560;-81
2024/01/25 05:15:58;;;;;;;7.50;1.80;;;;;;;5.86;59.11;96928.89;102334;1284;641972;-78
2024/01/25 05:18:49;;;;;;;7.70;1.90;;;;;;;5.94;59.14;96945.46;100508;1267;5334182;-74
2024/01/25 05:21:57;;;;;;;8.40;2.00;;;;;;;5.92;59.54;96947.06;104346;1266;95859;-75
2024/01/25 05:25:06;;;;;;;7.10;2.10;;;;;;;5.89;59.65;96948.35;104377;1280;99718;-76
2024/01/25 05:27:57;;;;;;;10.40;2.30;;;;;;;5.85;59.88;96951.09;104429;1266;101750;-76
2024/01/25 05:31:09;;;;;;;9.60;2.60;;;;;;;5.82;60.28;96951.14;104371;1263;99967;-78
2024/01/25 05:34:00;;;;;;;9.40;2.50;;;;;;;5.76;60.43;96947.89;104370;1277;96829;-77
2024/01/25 05:36:45;;;;;;;11.70;2.40;;;;;;;5.72;60.71;96941.16;104851;1254;95838;-77
2024/01/25 05:39:53;;;;;;;12.00;2.40;;;;;;;5.68;60.91;96935.86;104774;1270;97892;-76
2024/01/25 05:43:01;;;;;;;8.00;2.10;;;;;;;5.66;60.95;96934.70;104688;1260;100160;-74
2024/01/25 05:46:10;;;;;;;10.70;2.60;;;;;;;5.66;60.92;96927.08;104768;1260;100098;-73
2024/01/25 05:48:49;;;;;;;8.20;2.70;;;;;;;5.66;60.52;96922.63;104731;1266;95884;-84
2024/01/25 05:51:50;;;;;;;13.30;2.60;;;;;;;5.68;60.57;96937.58;104712;1259;96828;-86
2024/01/25 05:54:57;;;;;;;6.70;1.80;;;;;;;5.70;60.64;96935.52;104780;1257;100957;-85
2024/01/25 05:58:04;;;;;;;7.90;2.80;;;;;;;5.71;60.47;96949.47;104889;1258;100429;-86
2024/01/25 06:01:05;;;;;;;12.40;2.30;;;;;;;5.73;60.46;96940.17;104881;1266;99943;-77
2024/01/25 06:04:14;;;;;;;11.60;2.50;;;;;;;5.73;60.47;96934.78;104952;1257;96827;-76
2024/01/25 06:07:22;;;;;;;7.60;1.60;;;;;;;5.74;60.54;96936.45;104696;1261;96831;-76
2024/01/25 06:10:30;;;;;;;9.30;3.20;;;;;;;5.75;60.44;96931.80;104707;1260;100891;-74
2024/01/25 06:13:24;;;;;;;8.50;2.00;;;;;;;5.76;60.44;96931.57;104656;1261;101518;-74
2024/01/25 06:16:19;;;;;;;7.10;2.20;;;;;;;5.75;60.46;96932.67;104757;1259;100159;-84
2024/01/25 06:19:27;;;;;;;9.00;2.00;;;;;;;5.77;60.44;96929.30;104784;1259;95941;-76
2024/01/25 06:22:34;;;;;;;10.20;2.30;;;;;;;5.78;60.25;96941.27;104715;1259;95910;-75
2024/01/25 06:25:36;;;;;;;12.00;2.50;;;;;;;5.79;60.12;96940.86;104674;1256;100694;-75
2024/01/25 06:28:44;;;;;;;12.80;2.10;;;;;;;5.80;60.01;96937.81;104775;1257;101678;-74
2024/01/25 06:31:51;;;;;;;7.80;2.00;;;;;;;5.79;60.09;96926.70;104775;1259;100472;-78
2024/01/25 06:34:59;;;;;;;11.40;2.80;;;;;;;5.78;60.00;96935.63;104781;1261;96911;-76
2024/01/25 06:38:07;;;;;;;5.60;2.30;;;;;;;5.80;59.95;96931.42;104851;1259;96702;-86
2024/01/25 06:41:06;;;;;;;9.40;2.80;;;;;;;5.79;59.99;96946.52;104714;1259;100976;-73
2024/01/25 06:43:37;;;;;;;10.60;2.60;;;;;;;5.78;60.36;96934.72;104906;1270;101571;-74
2024/01/25 06:46:33;;;;;;;10.60;3.40;;;;;;;5.77;60.67;96935.70;104769;1259;99965;-75
2024/01/25 06:49:04;;;;;;;11.50;2.60;;;;;;;5.73;60.79;96932.77;104676;1259;96319;-77
2024/01/25 06:51:58;;;;;;;8.10;2.80;;;;;;;5.72;61.05;96934.40;104797;1259;96133;-74
2024/01/25 06:55:06;;;;;;;9.50;2.40;;;;;;;5.69;61.29;96947.02;104896;1259;101031;-74
2024/01/25 06:58:14;;;;;;;7.80;2.80;;;;;;;5.66;61.61;96951.20;104954;1259;99169;-86
2024/01/25 07:01:27;;;;;;;9.30;3.00;;;;;;;5.61;62.28;96947.90;104676;1259;99103;-76
2024/01/25 07:04:15;;;;;;;;;;;;;;;5.54;62.96;96960.06;104718;1259;96152;-76
2024/01/25 07:07:23;;;;;;;9.80;3.40;;;;;;;5.46;63.58;96956.72;104779;1259;95871;-76
2024/01/25 07:10:12;;;;;;;11.80;3.50;;;;;;;5.38;64.02;96955.37;104629;1257;99511;-77
2024/01/25 07:13:07;;;;;;;10.00;3.40;;;;;;;5.30;64.63;96950.10;104734;1257;100335;-75
2024/01/25 07:15:59;;;;;;;15.90;5.70;;;;;;;5.22;64.81;96955.42;104629;1262;98829;-75
2024/01/25 07:18:40;;;;;;;13.50;4.50;;;;;;;5.17;64.88;96962.84;104785;1259;97124;-75
2024/01/25 07:21:13;;;;;;;11.60;3.20;;;;;;;5.15;65.38;96970.59;104646;1259;95849;-75
2024/01/25 07:24:07;;;;;;;13.50;3.70;;;;;;;5.12;65.28;96970.05;104793;1259;100870;-76
2024/01/25 07:27:08;;;;;;;11.10;3.60;;;;;;;5.09;65.76;96969.89;104750;1261;101114;-76
2024/01/25 07:30:16;;;;;;;9.50;3.00;;;;;;;5.05;66.25;96974.48;104717;1260;99430;-77
2024/01/25 07:33:24;;;;;;;10.00;2.70;;;;;;;5.00;66.23;96965.64;104708;1278;95934;-76
2024/01/25 07:35:58;;;;;;;22.50;6.30;;;;;;;4.98;66.23;96961.23;104708;1269;95956;-74
2024/01/25 07:39:06;;;;;;;12.10;4.40;;;;;;;4.96;66.35;96961.27;104737;1262;98863;-85
2024/01/25 07:42:07;;;;;;;10.30;3.70;;;;;;;4.94;66.49;96955.16;104727;1257;99301;-86
2024/01/25 07:44:40;;;;;;;11.30;3.20;;;;;;;4.94;66.52;96962.15;104763;1258;98804;-88
2024/01/25 07:47:31;;;;;;;14.70;3.20;;;;;;;4.96;66.29;96960.23;104846;1260;95859;-85
2024/01/25 07:50:29;;;;;;;11.50;2.90;;;;;;;4.98;66.26;96967.29;104687;1260;95894;-85
2024/01/25 07:53:38;;;;;;;8.60;2.80;;;;;;;5.00;66.10;96967.36;104759;1256;101028;-87
2024/01/25 07:56:49;;;;;;;13.70;3.10;;;;;;;5.03;66.08;96972.02;104843;1259;100435;-73
2024/01/25 07:59:57;;;;;;;9.20;2.70;;;;;;;5.07;66.13;96983.65;104481;1262;99822;-76
2024/01/25 08:03:05;;;;;;;7.70;2.20;;;;;;;5.10;65.94;96979.05;104617;1277;96152;-74
2024/01/25 08:06:14;;;;;;;7.90;2.20;;;;;;;5.12;66.16;96976.08;104625;1262;96149;-74
2024/01/25 08:09:08;;;;;;;7.60;2.20;;;;;;;5.16;66.18;96977.53;104686;1262;99979;-74
2024/01/25 08:12:16;;;;;;;8.00;2.80;;;;;;;5.17;66.04;96981.20;104590;1263;101596;-74
2024/01/25 08:15:25;;;;;;;8.20;2.80;;;;;;;5.17;65.88;96978.90;104618;1260;98875;-75
2024/01/25 08:18:33;;;;;;;8.80;3.20;;;;;;;5.16;66.11;96988.77;104630;1263;95879;-73
2024/01/25 08:21:41;;;;;;;10.40;2.80;;;;;;;5.16;66.42;96986.58;104639;1262;95765;-74
2024/01/25 08:24:49;;;;;;;4.60;1.90;;;;;;;5.08;66.78;96980.17;104661;1275;108381;-76
2024/01/25 08:27:57;;;;;;;11.50;2.60;;;;;;;5.05;66.94;96991.26;104841;1259;100430;-75
2024/01/25 08:30:48;;;;;;;8.30;2.80;;;;;;;5.01;67.32;96991.66;104629;1262;99837;-75
2024/01/25 08:33:47;;;;;;;7.00;2.40;;;;;;;4.97;67.28;96996.08;104652;1256;95887;-74
2024/01/25 08:36:18;;;;;;;9.30;2.60;;;;;;;4.96;67.43;96993.39;104685;1264;95862;-72
2024/01/25 08:38:46;;;;;;;11.50;2.40;;;;;;;4.94;67.69;96998.81;104577;1263;100953;-72
2024/01/25 08:41:15;;;;;;;10.00;3.70;;;;;;;4.90;68.24;96994.69;104659;1270;100332;-72
2024/01/25 08:43:43;;;;;;;7.30;2.50;;;;;;;4.86;68.40;96997.91;104648;1262;98644;-72
2024/01/25 08:46:15;;;;;;;6.90;2.70;;;;;;;4.82;68.49;97000.00;104616;1257;96716;-75
2024/01/25 08:48:43;;;;;;;12.60;3.90;;;;;;;4.77;68.71;97006.77;104723;1257;96546;-75
2024/01/25 08:51:10;;;;;;;9.10;2.40;;;;;;;4.73;68.93;97013.20;104543;1262;100392;-76
2024/01/25 08:53:38;;;;;;;10.60;2.90;;;;;;;4.69;69.25;97007.94;104621;1262;100641;-74
2024/01/25 08:56:06;;;;;;;8.60;3.50;;;;;;;4.64;69.57;97000.26;104581;1260;99979;-76
2024/01/25 08:58:34;;;;;;;11.10;2.60;;;;;;;4.60;69.61;97001.13;104656;1262;95859;-75
2024/01/25 09:01:01;;;;;;;11.30;2.50;;;;;;;4.58;69.95;97007.81;104650;1267;95830;-75
2024/01/25 09:03:29;;;;;;;10.80;2.80;;;;;;;4.53;70.23;97007.30;104645;1262;100688;-75
2024/01/25 09:05:57;;;;;;;9.10;3.00;;;;;;;4.48;70.73;96998.29;104696;1262;101430;-75
2024/01/25 09:08:25;;;;;;;6.90;3.00;;;;;;;4.42;71.13;96993.32;104663;1261;100081;-74
2024/01/25 09:10:53;;;;;;;10.00;4.00;;;;;;;4.44;71.01;96987.66;104746;1262;96860;-75
2024/01/25 09:13:21;;;;;;;5.80;2.60;;;;;;;4.45;71.00;96998.94;104594;1262;95865;-74
2024/01/25 09:15:48;;;;;;;11.10;3.00;;;;;;;4.44;71.00;96999.42;104579;1270;100616;-72
2024/01/25 09:18:16;;;;;;;12.30;3.20;;;;;;;4.42;71.51;97003.51;104623;1262;101350;-72
2024/01/25 09:20:47;;;;;;;11.10;3.00;;;;;;;4.41;71.62;97006.70;104555;1270;99976;-72
2024/01/25 09:23:16;;;;;;;16.20;8.30;;;;;;;4.40;71.80;97005.16;104655;1261;97087;-71
2024/01/25 09:25:47;;;;;;;13.30;4.60;;;;;;;4.43;71.77;97007.02;104755;1258;95841;-72
2024/01/25 09:28:16;;;;;;;9.10;3.00;;;;;;;4.44;72.07;97013.77;104564;1262;101158;-72
2024/01/25 09:30:44;;;;;;;14.80;3.10;;;;;;;4.43;72.13;97018.93;104682;1262;101538;-75
2024/01/25 09:33:11;;;;;;;6.90;2.90;;;;;;;4.40;72.16;97021.93;104656;1263;100084;-75
2024/01/25 09:35:39;;;;;;;9.90;3.10;;;;;;;4.36;72.30;97023.27;104656;1262;97250;-74
2024/01/25 09:38:08;;;;;;;10.90;3.40;;;;;;;4.32;72.45;97026.50;104701;1262;96149;-75
2024/01/25 09:40:36;;;;;;;10.50;2.80;;;;;;;4.27;72.55;97027.96;104769;1262;101053;-76
2024/01/25 09:43:04;;;;;;;9.20;2.70;;;;;;;4.25;72.76;97028.05;104589;1262;101213;-75
2024/01/25 09:45:32;;;;;;;10.10;3.00;;;;;;;4.21;73.09;97028.48;104615;1263;99971;-75
2024/01/25 09:48:04;;;;;;;10.20;2.70;;;;;;;4.19;73.39;97026.82;104630;1263;95771;-77
2024/01/25 09:50:33;;;;;;;14.10;3.20;;;;;;;4.17;73.24;97021.08;104762;1261;95819;-77
2024/01/25 09:53:02;;;;;;;12.00;3.20;;;;;;;4.18;73.52;97021.73;104619;1263;100810;-76
2024/01/25 09:55:33;;;;;;;8.40;3.00;;;;;;;4.17;73.46;97019.68;104696;1270;101407;-76
2024/01/25 09:58:01;;;;;;;11.90;3.50;;;;;;;4.18;73.43;97015.80;104716;1261;100091;-76
2024/01/25 10:00:29;;;;;;;10.80;2.90;;;;;;;4.19;73.47;97025.02;104615;1262;96595;-76
2024/01/25 10:02:56;;;;;;;12.20;3.80;;;;;;;4.19;73.47;97012.73;104672;1262;97083;-74
2024/01/25 10:05:24;;;;;;;14.20;3.40;;;;;;;4.19;73.46;97008.73;104646;1261;101285;-74
2024/01/25 10:07:52;;;;;;;12.80;4.80;;;;;;;4.21;73.60;97007.98;104639;1262;101481;-74
2024/01/25 10:10:21;;;;;;;10.20;3.60;;;;;;;4.23;73.63;97007.10;104616;1271;99148;-75
2024/01/25 10:12:48;;;;;;;11.00;3.30;;;;;;;4.25;73.45;97011.58;104547;1264;96598;-76
2024/01/25 10:15:16;;;;;;;13.80;3.80;;;;;;;4.26;73.33;97010.06;104701;1262;97083;-77
2024/01/25 10:17:45;;;;;;;12.80;4.40;;;;;;;4.27;73.26;97005.29;104682;1262;101938;-76
2024/01/25 10:20:15;;;;;;;13.10;3.50;;;;;;;4.29;73.14;97001.83;104622;1262;101374;-76
2024/01/25 10:22:44;;;;;;;16.10;4.30;;;;;;;4.33;73.16;97000.36;104678;1271;99723;-77
2024/01/25 10:25:15;;;;;;;27.60;11.80;;;;;;;4.39;73.09;97009.25;104589;1270;96665;-77
2024/01/25 10:27:43;;;;;;;22.80;7.10;;;;;;;4.46;73.02;97012.15;104619;1262;97090;-77
2024/01/25 10:30:11;;;;;;;19.80;4.40;;;;;;;4.51;72.92;97015.27;104619;1272;101706;-77
2024/01/25 10:32:42;;;;;;;13.50;4.40;;;;;;;4.53;72.81;97013.95;104518;1273;100540;-76
2024/01/25 10:35:10;;;;;;;17.70;3.90;;;;;;;4.56;72.64;97012.02;104658;1262;99288;-76
2024/01/25 10:37:40;;;;;;;14.40;3.90;;;;;;;4.59;72.67;97008.69;104606;1267;96564;-76
2024/01/25 10:40:11;;;;;;;13.90;3.90;;;;;;;4.64;72.78;97011.68;104642;1256;97414;-77
2024/01/25 10:42:39;;;;;;;14.30;4.10;;;;;;;4.68;72.71;97024.17;104648;1262;102392;-76
2024/01/25 10:45:08;;;;;;;13.50;3.60;;;;;;;4.73;72.61;97025.45;104587;1263;101336;-77
2024/01/25 10:47:37;;;;;;;11.60;3.50;;;;;;;4.76;72.38;97013.77;104697;1262;99969;-76
2024/01/25 10:50:08;;;;;;;10.30;3.90;;;;;;;4.75;72.30;97014.58;104602;1272;96599;-76
2024/01/25 10:52:37;;;;;;;12.90;4.00;;;;;;;4.72;72.38;97017.14;104657;1263;97198;-76
2024/01/25 10:55:07;;;;;;;14.20;3.80;;;;;;;4.68;72.31;97024.75;104609;1271;102079;-76
2024/01/25 10:57:40;;;;;;;12.10;3.80;;;;;;;4.66;72.37;97033.33;104603;1262;100517;-76
2024/01/25 11:00:11;;;;;;;21.70;4.30;;;;;;;4.66;72.70;97044.25;104650;1271;100043;-76
2024/01/25 11:02:43;;;;;;;17.90;4.60;;;;;;;4.63;72.90;97047.08;104596;1270;97195;-77
2024/01/25 11:05:13;;;;;;;13.30;3.90;;;;;;;4.57;72.99;97053.61;104651;1265;96610;-77
2024/01/25 11:07:43;;;;;;;14.00;4.70;;;;;;;4.51;73.13;97057.49;104607;1260;102281;-88
2024/01/25 11:10:17;;;;;;;16.20;5.70;;;;;;;4.45;73.17;97055.39;104632;1270;100374;-86
2024/01/25 11:12:58;;;;;;;15.30;4.70;;;;;;;4.40;73.44;97052.20;104639;1261;98581;-85
2024/01/25 11:15:37;;;;;;;17.50;5.30;;;;;;;4.35;73.53;97053.38;104565;1262;97239;-86
2024/01/25 11:18:08;;;;;;;21.90;5.90;;;;;;;4.30;73.53;97051.05;104723;1262;97369;-76
2024/01/25 11:20:37;;;;;;;15.70;5.10;;;;;;;4.28;73.49;97053.06;104632;1261;101813;-74
2024/01/25 11:23:07;;;;;;;19.00;5.10;;;;;;;4.27;73.60;97057.52;104594;1264;100351;-76
2024/01/25 11:25:37;;;;;;;15.40;4.90;;;;;;;4.27;73.78;97057.45;104702;1263;99998;-77
2024/01/25 11:28:07;;;;;;;15.30;4.80;;;;;;;4.29;73.81;97053.20;104547;1262;96578;-76
2024/01/25 11:30:36;;;;;;;21.10;4.40;;;;;;;4.27;73.53;97052.15;104653;1273;96515;-85
2024/01/25 11:33:08;;;;;;;21.00;4.60;;;;;;;4.26;73.20;97054.59;104641;1262;102396;-86
2024/01/25 11:35:37;;;;;;;17.00;4.70;;;;;;;4.27;73.19;97049.84;104662;1270;101566;-87
2024/01/25 11:38:05;;;;;;;15.50;4.60;;;;;;;4.29;73.27;97049.59;104664;1270;98793;-86
2024/01/25 11:40:34;;;;;;;14.60;4.70;;;;;;;4.28;73.32;97053.64;104713;1262;96734;-86
2024/01/25 11:43:03;;;;;;;16.60;4.20;;;;;;;4.27;73.42;97061.05;104704;1263;97544;-85
2024/01/25 11:45:31;;;;;;;16.80;3.90;;;;;;;4.27;73.60;97070.38;104658;1259;102291;-76
2024/01/25 11:47:58;;;;;;;15.30;3.90;;;;;;;4.27;73.73;97065.66;104722;1260;100347;-86
2024/01/25 11:50:26;;;;;;;14.50;4.40;;;;;;;4.26;73.65;97061.20;104595;1263;99971;-87
2024/01/25 11:52:54;;;;;;;16.00;3.70;;;;;;;4.25;73.61;97062.54;104616;1263;96783;-88
2024/01/25 11:55:22;;;;;;;22.60;4.30;;;;;;;4.23;73.58;97063.45;104575;1262;97182;-86
2024/01/25 11:57:50;;;;;;;11.80;4.20;;;;;;;4.22;73.69;97063.81;104581;1263;102458;-86
2024/01/25 12:00:19;;;;;;;13.40;4.00;;;;;;;4.21;73.77;97063.73;104589;1270;101521;-86
2024/01/25 12:02:46;;;;;;;18.00;4.90;;;;;;;4.20;73.57;97068.48;104707;1261;100200;-88
2024/01/25 12:05:14;;;;;;;18.00;3.90;;;;;;;4.20;73.47;97069.18;104685;1262;97493;-86
2024/01/25 12:07:42;;;;;;;16.70;3.60;;;;;;;4.22;73.30;97073.02;104682;1270;97079;-75
2024/01/25 12:10:17;;;;;;;14.90;3.60;;;;;;;4.25;73.09;97075.56;104649;1270;102175;-74
2024/01/25 12:12:45;;;;;;;19.80;3.60;;;;;;;4.28;72.89;97081.09;104739;1270;101334;-73
2024/01/25 12:15:13;;;;;;;15.70;2.90;;;;;;;4.31;72.66;97085.52;104641;1270;98968;-74
2024/01/25 12:17:41;;;;;;;9.90;3.60;;;;;;;4.35;72.73;97087.71;104764;1260;97247;-86
2024/01/25 12:20:12;;;;;;;15.70;3.80;;;;;;;4.38;72.74;97084.84;104761;1258;97799;-88
2024/01/25 12:22:39;;;;;;;11.30;4.00;;;;;;;4.46;72.48;97081.10;104777;1270;103331;-88
2024/01/25 12:25:13;;;;;;;20.60;4.30;;;;;;;4.50;71.97;97079.29;104708;1261;101323;-86
2024/01/25 12:27:41;;;;;;;11.40;3.40;;;;;;;4.52;71.58;97071.23;104758;1262;99171;-86
2024/01/25 12:30:09;;;;;;;9.50;3.80;;;;;;;4.56;71.60;97074.02;104674;1270;96716;-86
2024/01/25 12:32:37;;;;;;;11.10;4.00;;;;;;;4.59;71.22;97077.66;104625;1264;96666;-73
2024/01/25 12:35:06;;;;;;;11.30;3.60;;;;;;;4.65;71.02;97076.65;104607;1263;101396;-74
2024/01/25 12:37:34;;;;;;;12.90;3.60;;;;;;;4.70;70.74;97080.27;104653;1260;100515;-74
2024/01/25 12:40:02;;;;;;;15.40;4.70;;;;;;;4.73;70.48;97082.27;104637;1267;99504;-74
2024/01/25 12:42:30;;;;;;;11.80;3.30;;;;;;;4.75;70.39;97085.80;104677;1263;96782;-87
2024/01/25 12:44:57;;;;;;;14.40;3.60;;;;;;;4.77;70.14;97084.92;104856;1260;97094;-89
2024/01/25 12:47:25;;;;;;;13.00;4.10;;;;;;;4.76;70.16;97087.90;104706;1262;102193;-87
2024/01/25 12:49:53;;;;;;;13.70;3.80;;;;;;;4.74;70.32;97086.72;104675;1260;101372;-86
2024/01/25 12:52:21;;;;;;;12.10;3.50;;;;;;;4.71;70.47;97092.66;104695;1270;98977;-87
2024/01/25 12:54:48;;;;;;;21.60;4.00;;;;;;;4.69;70.50;97091.89;104648;1263;97491;-87
2024/01/25 12:57:16;;;;;;;13.70;3.50;;;;;;;4.68;70.62;97089.70;104717;1270;97096;-88
2024/01/25 12:59:44;;;;;;;13.90;4.60;;;;;;;4.67;70.64;97100.70;104671;1270;102207;-89
2024/01/25 13:02:13;;;;;;;16.80;3.60;;;;;;;4.63;70.67;97102.89;104718;1262;101309;-76
2024/01/25 13:04:41;;;;;;;11.40;3.80;;;;;;;4.60;70.99;97103.61;104630;1263;100185;-76
2024/01/25 13:07:08;;;;;;;17.00;3.80;;;;;;;4.56;71.31;97097.98;104689;1260;97474;-77
2024/01/25 13:09:37;;;;;;;12.80;3.50;;;;;;;4.52;71.51;97098.16;104628;1263;98139;-76
2024/01/25 13:12:05;;;;;;;11.90;3.50;;;;;;;4.48;71.65;97110.77;104705;1270;101325;-76
2024/01/25 13:14:33;;;;;;;12.60;4.40;;;;;;;4.46;71.84;97115.83;104682;1270;101595;-76
2024/01/25 13:17:01;;;;;;;13.00;4.80;;;;;;;4.44;72.01;97120.29;104881;1263;99066;-76
2024/01/25 13:19:28;;;;;;;17.20;4.50;;;;;;;4.43;72.27;97122.26;104781;1258;97493;-76
2024/01/25 13:21:56;;;;;;;14.30;4.00;;;;;;;4.42;72.54;97131.65;104786;1261;98453;-76
2024/01/25 13:24:24;;;;;;;13.50;3.80;;;;;;;4.40;72.80;97128.86;104681;1270;102092;-76